createdAt,value
2023-03-29T00:00:58.576Z,93264.00
2023-03-29T00:01:58.546Z,93262.00
2023-03-29T00:02:58.706Z,93266.00
2023-03-29T00:04:01.797Z,93268.00
2023-03-29T00:04:58.940Z,93275.00
2023-03-29T00:05:59.105Z,93285.00
2023-03-29T00:06:59.252Z,93295.00
2023-03-29T00:07:59.469Z,93289.00
2023-03-29T00:08:59.532Z,93287.00
2023-03-29T00:09:59.683Z,93293.00
2023-03-29T00:11:00.077Z,93291.00
2023-03-29T00:11:59.943Z,93289.00
2023-03-29T00:13:00.097Z,93287.00
2023-03-29T00:14:00.198Z,93295.00
2023-03-29T00:15:00.348Z,93299.00
2023-03-29T00:16:00.441Z,93301.00
2023-03-29T00:17:00.614Z,93301.00
2023-03-29T00:18:00.730Z,93295.00
2023-03-29T00:19:00.781Z,93295.00
2023-03-29T00:20:00.904Z,93293.00
2023-03-29T00:21:01.115Z,93287.00
2023-03-29T00:22:01.178Z,93287.00
2023-03-29T00:23:01.295Z,93285.00
2023-03-29T00:24:01.420Z,93281.00
2023-03-29T00:25:01.562Z,93275.00
2023-03-29T00:26:01.752Z,93279.00
2023-03-29T00:27:01.853Z,93279.00
2023-03-29T00:28:02.007Z,93287.00
2023-03-29T00:29:02.164Z,93283.00
2023-03-29T00:30:02.294Z,93285.00
2023-03-29T00:31:02.617Z,93287.00
2023-03-29T00:32:02.622Z,93293.00
2023-03-29T00:33:02.877Z,93301.00
2023-03-29T00:34:02.935Z,93303.00
2023-03-29T00:35:03.086Z,93305.00
2023-03-29T00:36:03.360Z,93307.00
2023-03-29T00:37:03.396Z,93311.00
2023-03-29T00:38:03.544Z,93315.00
2023-03-29T00:39:03.693Z,93316.00
2023-03-29T00:40:03.840Z,93318.00
2023-03-29T00:41:04.257Z,93318.00
2023-03-29T00:42:04.104Z,93318.00
2023-03-29T00:43:04.225Z,93320.00
2023-03-29T00:44:04.379Z,93324.00
2023-03-29T00:45:04.470Z,93322.00
2023-03-29T00:46:04.646Z,93318.00
2023-03-29T00:47:04.718Z,93320.00
2023-03-29T00:48:05.077Z,93332.00
2023-03-29T00:49:05.104Z,93332.00
2023-03-29T00:50:05.222Z,93338.00
2023-03-29T00:51:05.401Z,93338.00
2023-03-29T00:52:05.545Z,93338.00
2023-03-29T00:53:05.734Z,93342.00
2023-03-29T00:54:05.917Z,93353.00
2023-03-29T00:55:06.101Z,93353.00
2023-03-29T00:56:06.303Z,93346.00
2023-03-29T00:57:06.485Z,93342.00
2023-03-29T00:58:06.610Z,93346.00
2023-03-29T00:59:06.771Z,93353.00
2023-03-29T01:00:06.936Z,93355.00
2023-03-29T01:01:07.086Z,93361.00
2023-03-29T01:02:07.336Z,93359.00
2023-03-29T01:03:07.512Z,93361.00
2023-03-29T01:04:07.562Z,93359.00
2023-03-29T01:05:07.651Z,93355.00
2023-03-29T01:06:07.785Z,93340.00
2023-03-29T01:07:07.907Z,93346.00
2023-03-29T01:08:08.024Z,93344.00
2023-03-29T01:09:08.171Z,93342.00
2023-03-29T01:10:08.310Z,93342.00
2023-03-29T01:11:08.468Z,93340.00
2023-03-29T01:12:08.700Z,93340.00
2023-03-29T01:13:08.780Z,93340.00
2023-03-29T01:14:08.975Z,93344.00
2023-03-29T01:15:09.132Z,93344.00
2023-03-29T01:16:09.398Z,93346.00
2023-03-29T01:17:09.514Z,93353.00
2023-03-29T01:18:09.752Z,93353.00
2023-03-29T01:19:09.902Z,93346.00
2023-03-29T01:20:10.095Z,93346.00
2023-03-29T01:21:10.291Z,93353.00
2023-03-29T01:22:10.495Z,93355.00
2023-03-29T01:23:10.649Z,93355.00
2023-03-29T01:24:10.837Z,93355.00
2023-03-29T01:25:11.057Z,93355.00
2023-03-29T01:26:11.237Z,93355.00
2023-03-29T01:27:11.830Z,93357.00
2023-03-29T01:28:11.618Z,93353.00
2023-03-29T01:29:11.802Z,93355.00
2023-03-29T01:30:11.992Z,93353.00
2023-03-29T01:31:12.177Z,93346.00
2023-03-29T01:32:12.359Z,93355.00
2023-03-29T01:33:12.555Z,93353.00
2023-03-29T01:34:12.747Z,93346.00
2023-03-29T01:35:12.924Z,93357.00
2023-03-29T01:36:13.123Z,93361.00
2023-03-29T01:37:13.293Z,93367.00
2023-03-29T01:38:13.520Z,93369.00
2023-03-29T01:39:13.659Z,93363.00
2023-03-29T01:40:13.821Z,93367.00
2023-03-29T01:41:13.980Z,93365.00
2023-03-29T01:42:14.129Z,93373.00
2023-03-29T01:43:14.284Z,93371.00
2023-03-29T01:44:14.421Z,93367.00
2023-03-29T01:45:14.560Z,93369.00
2023-03-29T01:46:14.767Z,93365.00
2023-03-29T01:47:14.899Z,93367.00
2023-03-29T01:48:15.047Z,93365.00
2023-03-29T01:49:15.208Z,93363.00
2023-03-29T01:50:15.370Z,93363.00
2023-03-29T01:51:15.510Z,93363.00
2023-03-29T01:52:15.676Z,93363.00
2023-03-29T01:53:15.840Z,93365.00
2023-03-29T01:54:16.018Z,93359.00
2023-03-29T01:55:16.180Z,93353.00
2023-03-29T01:56:16.348Z,93340.00
2023-03-29T01:57:16.576Z,93342.00
2023-03-29T01:58:16.684Z,93353.00
2023-03-29T01:59:16.881Z,93359.00
2023-03-29T02:00:17.095Z,93359.00
2023-03-29T02:01:17.341Z,93365.00
2023-03-29T02:02:17.619Z,93361.00
2023-03-29T02:03:17.819Z,93359.00
2023-03-29T02:04:17.997Z,93357.00
2023-03-29T02:05:18.223Z,93346.00
2023-03-29T02:06:18.400Z,93338.00
2023-03-29T02:07:19.304Z,93328.00
2023-03-29T02:08:18.828Z,93324.00
2023-03-29T02:09:19.092Z,93320.00
2023-03-29T02:10:19.276Z,93324.00
2023-03-29T02:11:19.475Z,93326.00
2023-03-29T02:12:19.694Z,93324.00
2023-03-29T02:13:19.898Z,93338.00
2023-03-29T02:14:20.073Z,93340.00
2023-03-29T02:15:20.272Z,93332.00
2023-03-29T02:16:20.835Z,93330.00
2023-03-29T02:17:20.674Z,93332.00
2023-03-29T02:18:20.906Z,93328.00
2023-03-29T02:19:21.097Z,93336.00
2023-03-29T02:20:21.292Z,93330.00
2023-03-29T02:21:21.521Z,93334.00
2023-03-29T02:22:21.743Z,93328.00
2023-03-29T02:23:21.969Z,93330.00
2023-03-29T02:24:22.189Z,93330.00
2023-03-29T02:25:22.376Z,93324.00
2023-03-29T02:26:22.565Z,93324.00
2023-03-29T02:27:22.736Z,93318.00
2023-03-29T02:28:22.923Z,93316.00
2023-03-29T02:29:23.104Z,93316.00
2023-03-29T02:30:23.278Z,93315.00
2023-03-29T02:31:23.485Z,93307.00
2023-03-29T02:32:23.678Z,93311.00
2023-03-29T02:33:23.790Z,93309.00
2023-03-29T02:34:24.809Z,93316.00
2023-03-29T02:35:24.145Z,93311.00
2023-03-29T02:36:24.321Z,93307.00
2023-03-29T02:37:24.491Z,93305.00
2023-03-29T02:38:24.670Z,93307.00
2023-03-29T02:39:24.834Z,93303.00
2023-03-29T02:40:24.993Z,93313.00
2023-03-29T02:41:25.146Z,93316.00
2023-03-29T02:42:25.312Z,93313.00
2023-03-29T02:43:26.096Z,93311.00
2023-03-29T02:44:25.666Z,93313.00
2023-03-29T02:45:25.903Z,93307.00
2023-03-29T02:46:26.111Z,93303.00
2023-03-29T02:47:26.282Z,93301.00
2023-03-29T02:48:26.818Z,93307.00
2023-03-29T02:49:26.638Z,93311.00
2023-03-29T02:50:26.831Z,93320.00
2023-03-29T02:51:27.057Z,93318.00
2023-03-29T02:52:27.249Z,93320.00
2023-03-29T02:53:27.462Z,93336.00
2023-03-29T02:54:27.671Z,93336.00
2023-03-29T02:55:28.813Z,93334.00
2023-03-29T02:56:28.076Z,93336.00
2023-03-29T02:57:28.308Z,93334.00
2023-03-29T02:58:28.505Z,93324.00
2023-03-29T02:59:28.719Z,93324.00
2023-03-29T03:00:28.936Z,93315.00
2023-03-29T03:01:29.193Z,93307.00
2023-03-29T03:02:29.366Z,93307.00
2023-03-29T03:03:29.615Z,93309.00
2023-03-29T03:04:29.771Z,93309.00
2023-03-29T03:05:29.973Z,93303.00
2023-03-29T03:06:30.177Z,93301.00
2023-03-29T03:07:30.381Z,93301.00
2023-03-29T03:08:30.581Z,93303.00
2023-03-29T03:09:30.756Z,93307.00
2023-03-29T03:10:30.960Z,93315.00
2023-03-29T03:11:31.246Z,93322.00
2023-03-29T03:12:31.381Z,93326.00
2023-03-29T03:13:31.604Z,93316.00
2023-03-29T03:14:31.847Z,93313.00
2023-03-29T03:15:32.815Z,93315.00
2023-03-29T03:16:32.306Z,93318.00
2023-03-29T03:17:32.550Z,93320.00
2023-03-29T03:18:32.729Z,93318.00
2023-03-29T03:19:32.979Z,93318.00
2023-03-29T03:20:33.173Z,93316.00
2023-03-29T03:21:33.405Z,93315.00
2023-03-29T03:22:33.613Z,93315.00
2023-03-29T03:23:33.843Z,93307.00
2023-03-29T03:24:34.073Z,93307.00
2023-03-29T03:25:34.296Z,93303.00
2023-03-29T03:26:34.538Z,93309.00
2023-03-29T03:27:34.751Z,93311.00
2023-03-29T03:28:34.955Z,93313.00
2023-03-29T03:29:35.162Z,93320.00
2023-03-29T03:30:35.376Z,93309.00
2023-03-29T03:31:35.679Z,93299.00
2023-03-29T03:32:35.848Z,93299.00
2023-03-29T03:33:36.055Z,93289.00
2023-03-29T03:34:36.296Z,93281.00
2023-03-29T03:35:36.519Z,93285.00
2023-03-29T03:36:36.704Z,93291.00
2023-03-29T03:37:36.903Z,93285.00
2023-03-29T03:38:37.103Z,93289.00
2023-03-29T03:39:37.309Z,93299.00
2023-03-29T03:40:37.522Z,93299.00
2023-03-29T03:41:37.731Z,93295.00
2023-03-29T03:42:37.945Z,93289.00
2023-03-29T03:43:38.183Z,93277.00
2023-03-29T03:44:38.376Z,93275.00
2023-03-29T03:45:38.621Z,93287.00
2023-03-29T03:46:38.819Z,93293.00
2023-03-29T03:47:39.069Z,93299.00
2023-03-29T03:48:39.255Z,93307.00
2023-03-29T03:49:39.470Z,93293.00
2023-03-29T03:50:39.697Z,93287.00
2023-03-29T03:51:39.895Z,93279.00
2023-03-29T03:52:40.163Z,93277.00
2023-03-29T03:53:40.292Z,93275.00
2023-03-29T03:54:40.461Z,93275.00
2023-03-29T03:55:40.635Z,93279.00
2023-03-29T03:56:40.842Z,93279.00
2023-03-29T03:57:40.957Z,93275.00
2023-03-29T03:58:41.118Z,93273.00
2023-03-29T03:59:41.284Z,93269.00
2023-03-29T04:00:41.461Z,93266.00
2023-03-29T04:01:41.649Z,93264.00
2023-03-29T04:02:41.869Z,93264.00
2023-03-29T04:03:42.151Z,93281.00
2023-03-29T04:04:42.304Z,93285.00
2023-03-29T04:05:42.518Z,93297.00
2023-03-29T04:06:43.783Z,93297.00
2023-03-29T04:07:42.955Z,93299.00
2023-03-29T04:08:43.176Z,93291.00
2023-03-29T04:09:43.422Z,93289.00
2023-03-29T04:10:43.711Z,93287.00
2023-03-29T04:11:43.842Z,93285.00
2023-03-29T04:12:44.070Z,93287.00
2023-03-29T04:13:44.276Z,93287.00
2023-03-29T04:14:44.449Z,93285.00
2023-03-29T04:15:44.654Z,93281.00
2023-03-29T04:16:44.807Z,93279.00
2023-03-29T04:17:45.060Z,93279.00
2023-03-29T04:18:45.355Z,93279.00
2023-03-29T04:19:45.361Z,93275.00
2023-03-29T04:20:46.316Z,93281.00
2023-03-29T04:21:45.708Z,93287.00
2023-03-29T04:22:45.901Z,93281.00
2023-03-29T04:23:46.092Z,93279.00
2023-03-29T04:24:46.277Z,93285.00
2023-03-29T04:25:46.475Z,93273.00
2023-03-29T04:26:46.691Z,93277.00
2023-03-29T04:27:46.913Z,93273.00
2023-03-29T04:28:47.130Z,93268.00
2023-03-29T04:29:47.342Z,93260.00
2023-03-29T04:30:47.576Z,93260.00
2023-03-29T04:31:47.762Z,93262.00
2023-03-29T04:32:47.967Z,93260.00
2023-03-29T04:33:48.117Z,93260.00
2023-03-29T04:34:48.332Z,93252.00
2023-03-29T04:35:48.591Z,93248.00
2023-03-29T04:36:48.754Z,93244.00
2023-03-29T04:37:48.951Z,93246.00
2023-03-29T04:38:49.144Z,93246.00
2023-03-29T04:39:49.365Z,93248.00
2023-03-29T04:40:50.323Z,93254.00
2023-03-29T04:41:49.776Z,93264.00
2023-03-29T04:42:49.989Z,93269.00
2023-03-29T04:43:50.231Z,93271.00
2023-03-29T04:44:50.482Z,93269.00
2023-03-29T04:45:50.649Z,93269.00
2023-03-29T04:46:50.933Z,93262.00
2023-03-29T04:47:51.130Z,93262.00
2023-03-29T04:48:51.310Z,93264.00
2023-03-29T04:49:51.528Z,93260.00
2023-03-29T04:50:51.725Z,93268.00
2023-03-29T04:51:51.938Z,93273.00
2023-03-29T04:52:52.159Z,93273.00
2023-03-29T04:53:52.359Z,93268.00
2023-03-29T04:54:52.550Z,93275.00
2023-03-29T04:55:52.719Z,93275.00
2023-03-29T04:56:52.893Z,93275.00
2023-03-29T04:57:53.061Z,93271.00
2023-03-29T04:58:53.239Z,93268.00
2023-03-29T04:59:53.436Z,93268.00
2023-03-29T05:00:53.633Z,93264.00
2023-03-29T05:01:53.845Z,93264.00
2023-03-29T05:02:54.062Z,93262.00
2023-03-29T05:03:54.260Z,93260.00
2023-03-29T05:04:54.398Z,93260.00
2023-03-29T05:05:54.549Z,93260.00
2023-03-29T05:06:54.728Z,93260.00
2023-03-29T05:07:54.899Z,93264.00
2023-03-29T05:08:55.064Z,93264.00
2023-03-29T05:09:55.259Z,93262.00
2023-03-29T05:10:55.458Z,93260.00
2023-03-29T05:11:55.623Z,93264.00
2023-03-29T05:12:55.917Z,93264.00
2023-03-29T05:13:55.960Z,93264.00
2023-03-29T05:14:56.150Z,93260.00
2023-03-29T05:15:56.360Z,93256.00
2023-03-29T05:16:56.560Z,93256.00
2023-03-29T05:17:56.812Z,93264.00
2023-03-29T05:18:57.010Z,93275.00
2023-03-29T05:19:57.217Z,93273.00
2023-03-29T05:20:57.415Z,93275.00
2023-03-29T05:21:57.614Z,93269.00
2023-03-29T05:22:57.870Z,93266.00
2023-03-29T05:23:58.017Z,93264.00
2023-03-29T05:24:58.228Z,93262.00
2023-03-29T05:25:58.409Z,93264.00
2023-03-29T05:26:58.640Z,93264.00
2023-03-29T05:27:58.840Z,93262.00
2023-03-29T05:28:59.046Z,93262.00
2023-03-29T05:29:59.280Z,93258.00
2023-03-29T05:30:59.594Z,93258.00
2023-03-29T05:31:59.834Z,93260.00
2023-03-29T05:32:59.961Z,93262.00
2023-03-29T05:34:00.199Z,93260.00
2023-03-29T05:35:00.347Z,93260.00
2023-03-29T05:36:00.572Z,93264.00
2023-03-29T05:37:00.827Z,93264.00
2023-03-29T05:38:00.952Z,93262.00
2023-03-29T05:39:01.145Z,93258.00
2023-03-29T05:40:05.783Z,93260.00
2023-03-29T05:41:01.497Z,93258.00
2023-03-29T05:42:01.578Z,93260.00
2023-03-29T05:43:01.721Z,93264.00
2023-03-29T05:44:01.888Z,93262.00
2023-03-29T05:45:02.030Z,93260.00
2023-03-29T05:46:02.275Z,93260.00
2023-03-29T05:47:02.355Z,93262.00
2023-03-29T05:48:02.495Z,93260.00
2023-03-29T05:49:02.713Z,93262.00
2023-03-29T05:50:02.910Z,93262.00
2023-03-29T05:51:03.294Z,93258.00
2023-03-29T05:52:03.349Z,93266.00
2023-03-29T05:53:03.645Z,93268.00
2023-03-29T05:54:03.812Z,93268.00
2023-03-29T05:55:04.019Z,93262.00
2023-03-29T05:56:04.225Z,93271.00
2023-03-29T05:57:04.480Z,93269.00
2023-03-29T05:58:04.666Z,93269.00
2023-03-29T05:59:04.913Z,93269.00
2023-03-29T06:00:05.191Z,93273.00
2023-03-29T06:01:05.332Z,93271.00
2023-03-29T06:02:05.493Z,93262.00
2023-03-29T06:03:17.697Z,93260.00
2023-03-29T06:04:06.958Z,93256.00
2023-03-29T06:05:06.058Z,93264.00
2023-03-29T06:06:06.183Z,93266.00
2023-03-29T06:07:07.335Z,93256.00
2023-03-29T06:08:06.547Z,93252.00
2023-03-29T06:09:06.691Z,93250.00
2023-03-29T06:10:06.876Z,93252.00
2023-03-29T06:11:07.156Z,93260.00
2023-03-29T06:12:07.209Z,93254.00
2023-03-29T06:13:07.391Z,93252.00
2023-03-29T06:14:07.649Z,93258.00
2023-03-29T06:15:07.877Z,93260.00
2023-03-29T06:16:08.080Z,93256.00
2023-03-29T06:17:08.285Z,93248.00
2023-03-29T06:18:08.453Z,93248.00
2023-03-29T06:19:08.653Z,93250.00
2023-03-29T06:20:08.873Z,93258.00
2023-03-29T06:21:09.181Z,93248.00
2023-03-29T06:22:09.340Z,93250.00
2023-03-29T06:23:10.257Z,93260.00
2023-03-29T06:24:09.935Z,93258.00
2023-03-29T06:25:11.621Z,93248.00
2023-03-29T06:26:10.156Z,93246.00
2023-03-29T06:27:10.396Z,93250.00
2023-03-29T06:28:10.596Z,93250.00
2023-03-29T06:29:10.837Z,93244.00
2023-03-29T06:30:11.071Z,93248.00
2023-03-29T06:31:11.297Z,93248.00
2023-03-29T06:32:11.501Z,93262.00
2023-03-29T06:33:11.749Z,93260.00
2023-03-29T06:34:11.915Z,93252.00
2023-03-29T06:35:12.127Z,93254.00
2023-03-29T06:36:12.354Z,93252.00
2023-03-29T06:37:12.566Z,93254.00
2023-03-29T06:38:12.772Z,93246.00
2023-03-29T06:39:12.978Z,93242.00
2023-03-29T06:40:13.180Z,93244.00
2023-03-29T06:41:13.490Z,93240.00
2023-03-29T06:42:21.273Z,93246.00
2023-03-29T06:43:14.765Z,93242.00
2023-03-29T06:44:13.931Z,93242.00
2023-03-29T06:45:14.205Z,93250.00
2023-03-29T06:46:14.322Z,93252.00
2023-03-29T06:47:14.459Z,93244.00
2023-03-29T06:48:14.634Z,93250.00
2023-03-29T06:49:14.803Z,93254.00
2023-03-29T06:50:14.979Z,93254.00
2023-03-29T06:51:15.147Z,93250.00
2023-03-29T06:52:15.325Z,93256.00
2023-03-29T06:53:15.492Z,93256.00
2023-03-29T06:54:15.717Z,93242.00
2023-03-29T06:55:15.944Z,93244.00
2023-03-29T06:56:16.182Z,93246.00
2023-03-29T06:57:16.462Z,93248.00
2023-03-29T06:58:16.618Z,93244.00
2023-03-29T06:59:16.800Z,93252.00
2023-03-29T07:00:17.032Z,93264.00
2023-03-29T07:01:17.229Z,93269.00
2023-03-29T07:02:17.415Z,93269.00
2023-03-29T07:03:17.638Z,93266.00
2023-03-29T07:04:17.916Z,93266.00
2023-03-29T07:05:18.009Z,93268.00
2023-03-29T07:06:18.186Z,93266.00
2023-03-29T07:07:18.489Z,93262.00
2023-03-29T07:08:18.674Z,93260.00
2023-03-29T07:09:19.544Z,93269.00
2023-03-29T07:10:19.092Z,93273.00
2023-03-29T07:11:19.315Z,93271.00
2023-03-29T07:12:19.515Z,93275.00
2023-03-29T07:13:19.739Z,93285.00
2023-03-29T07:14:19.947Z,93279.00
2023-03-29T07:15:20.156Z,93277.00
2023-03-29T07:16:20.431Z,93279.00
2023-03-29T07:17:20.592Z,93283.00
2023-03-29T07:18:20.821Z,93283.00
2023-03-29T07:19:21.038Z,93279.00
2023-03-29T07:20:21.274Z,93277.00
2023-03-29T07:21:21.504Z,93281.00
2023-03-29T07:22:21.743Z,93291.00
2023-03-29T07:23:21.944Z,93291.00
2023-03-29T07:24:22.168Z,93297.00
2023-03-29T07:25:22.469Z,93299.00
2023-03-29T07:26:28.400Z,93297.00
2023-03-29T07:27:23.811Z,93303.00
2023-03-29T07:28:22.972Z,93299.00
2023-03-29T07:29:23.130Z,93299.00
2023-03-29T07:30:23.313Z,93297.00
2023-03-29T07:31:23.474Z,93295.00
2023-03-29T07:32:23.726Z,93293.00
2023-03-29T07:33:23.890Z,93293.00
2023-03-29T07:34:24.011Z,93287.00
2023-03-29T07:35:24.193Z,93295.00
2023-03-29T07:36:24.327Z,93291.00
2023-03-29T07:37:24.515Z,93291.00
2023-03-29T07:38:24.703Z,93289.00
2023-03-29T07:39:24.885Z,93291.00
2023-03-29T07:40:25.186Z,93289.00
2023-03-29T07:41:25.281Z,93297.00
2023-03-29T07:42:25.495Z,93287.00
2023-03-29T07:43:25.741Z,93289.00
2023-03-29T07:44:25.952Z,93287.00
2023-03-29T07:45:28.090Z,93283.00
2023-03-29T07:46:26.520Z,93287.00
2023-03-29T07:47:26.634Z,93287.00
2023-03-29T07:48:26.867Z,93287.00
2023-03-29T07:49:27.064Z,93289.00
2023-03-29T07:50:27.276Z,93293.00
2023-03-29T07:51:27.488Z,93291.00
2023-03-29T07:52:27.712Z,93287.00
2023-03-29T07:53:27.952Z,93281.00
2023-03-29T07:54:28.187Z,93283.00
2023-03-29T07:55:29.448Z,93283.00
2023-03-29T07:56:28.668Z,93297.00
2023-03-29T07:57:29.010Z,93299.00
2023-03-29T07:58:29.166Z,93287.00
2023-03-29T07:59:29.322Z,93279.00
2023-03-29T08:00:29.573Z,93269.00
2023-03-29T08:01:29.840Z,93289.00
2023-03-29T08:03:30.239Z,93297.00
2023-03-29T08:04:30.598Z,93283.00
2023-03-29T08:05:40.846Z,93287.00
2023-03-29T08:06:31.820Z,93283.00
2023-03-29T08:07:30.981Z,93287.00
2023-03-29T08:08:31.175Z,93285.00
2023-03-29T08:09:31.346Z,93275.00
2023-03-29T08:10:31.575Z,93277.00
2023-03-29T08:11:31.713Z,93268.00
2023-03-29T08:12:31.909Z,93279.00
2023-03-29T08:13:32.368Z,93277.00
2023-03-29T08:14:32.294Z,93289.00
2023-03-29T08:15:32.493Z,93285.00
2023-03-29T08:16:33.413Z,93285.00
2023-03-29T08:17:32.893Z,93297.00
2023-03-29T08:18:34.858Z,93283.00
2023-03-29T08:19:33.192Z,93285.00
2023-03-29T08:20:33.418Z,93293.00
2023-03-29T08:21:33.607Z,93293.00
2023-03-29T08:22:33.868Z,93295.00
2023-03-29T08:23:34.031Z,93303.00
2023-03-29T08:24:34.262Z,93303.00
2023-03-29T08:25:34.509Z,93301.00
2023-03-29T08:26:34.801Z,93279.00
2023-03-29T08:27:35.010Z,93279.00
2023-03-29T08:28:35.220Z,93285.00
2023-03-29T08:29:36.312Z,93289.00
2023-03-29T08:30:35.656Z,93277.00
2023-03-29T08:31:35.985Z,93279.00
2023-03-29T08:32:36.160Z,93275.00
2023-03-29T08:33:36.332Z,93260.00
2023-03-29T08:34:36.546Z,93262.00
2023-03-29T08:35:36.781Z,93264.00
2023-03-29T08:36:36.978Z,93258.00
2023-03-29T08:37:37.165Z,93266.00
2023-03-29T08:38:37.358Z,93266.00
2023-03-29T08:39:37.571Z,93266.00
2023-03-29T08:40:37.827Z,93264.00
2023-03-29T08:41:37.997Z,93279.00
2023-03-29T08:42:38.199Z,93269.00
2023-03-29T08:43:38.372Z,93281.00
2023-03-29T08:44:38.602Z,93293.00
2023-03-29T08:45:38.755Z,93289.00
2023-03-29T08:46:39.004Z,93293.00
2023-03-29T08:47:39.191Z,93295.00
2023-03-29T08:48:40.348Z,93291.00
2023-03-29T08:49:39.623Z,93285.00
2023-03-29T08:50:39.927Z,93297.00
2023-03-29T08:51:40.863Z,93291.00
2023-03-29T08:52:40.297Z,93287.00
2023-03-29T08:53:40.491Z,93297.00
2023-03-29T08:54:41.352Z,93287.00
2023-03-29T08:55:43.862Z,93283.00
2023-03-29T08:56:41.038Z,93283.00
2023-03-29T08:57:41.165Z,93277.00
2023-03-29T08:58:41.304Z,93281.00
2023-03-29T08:59:41.457Z,93283.00
2023-03-29T09:00:41.610Z,93293.00
2023-03-29T09:01:41.808Z,93283.00
2023-03-29T09:02:42.016Z,93275.00
2023-03-29T09:03:42.220Z,93273.00
2023-03-29T09:04:44.018Z,93281.00
2023-03-29T09:05:42.415Z,93285.00
2023-03-29T09:06:42.574Z,93277.00
2023-03-29T09:07:42.728Z,93285.00
2023-03-29T09:08:42.918Z,93295.00
2023-03-29T09:09:43.066Z,93293.00
2023-03-29T09:10:44.234Z,93287.00
2023-03-29T09:11:43.369Z,93287.00
2023-03-29T09:12:43.574Z,93283.00
2023-03-29T09:13:43.711Z,93277.00
2023-03-29T09:14:43.871Z,93275.00
2023-03-29T09:15:44.067Z,93273.00
2023-03-29T09:16:44.204Z,93273.00
2023-03-29T09:17:44.401Z,93268.00
2023-03-29T09:18:44.516Z,93268.00
2023-03-29T09:19:44.666Z,93277.00
2023-03-29T09:20:44.831Z,93277.00
2023-03-29T09:21:44.965Z,93285.00
2023-03-29T09:22:45.112Z,93289.00
2023-03-29T09:23:45.316Z,93283.00
2023-03-29T09:24:45.501Z,93279.00
2023-03-29T09:26:45.848Z,93285.00
2023-03-29T09:27:46.027Z,93281.00
2023-03-29T09:28:46.179Z,93289.00
2023-03-29T09:29:46.341Z,93289.00
2023-03-29T09:30:46.490Z,93293.00
2023-03-29T09:31:47.427Z,93291.00
2023-03-29T09:32:46.867Z,93299.00
2023-03-29T09:33:46.992Z,93297.00
2023-03-29T09:34:47.157Z,93299.00
2023-03-29T09:35:47.363Z,93297.00
2023-03-29T09:36:47.484Z,93291.00
2023-03-29T09:37:47.667Z,93293.00
2023-03-29T09:38:47.837Z,93283.00
2023-03-29T09:39:48.012Z,93279.00
2023-03-29T09:40:48.207Z,93283.00
2023-03-29T09:41:48.349Z,93285.00
2023-03-29T09:42:48.522Z,93283.00
2023-03-29T09:43:48.739Z,93285.00
2023-03-29T09:44:48.876Z,93289.00
2023-03-29T09:45:49.115Z,93297.00
2023-03-29T09:46:49.260Z,93293.00
2023-03-29T09:47:49.490Z,93289.00
2023-03-29T09:48:49.663Z,93285.00
2023-03-29T09:49:49.848Z,93295.00
2023-03-29T09:50:50.057Z,93291.00
2023-03-29T09:51:50.197Z,93303.00
2023-03-29T09:52:50.360Z,93307.00
2023-03-29T09:53:50.500Z,93303.00
2023-03-29T09:54:50.649Z,93305.00
2023-03-29T09:55:50.802Z,93297.00
2023-03-29T09:56:50.972Z,93303.00
2023-03-29T09:57:51.100Z,93305.00
2023-03-29T09:58:51.271Z,93309.00
2023-03-29T09:59:51.724Z,93309.00
2023-03-29T10:00:51.634Z,93313.00
2023-03-29T10:01:51.982Z,93313.00
2023-03-29T10:02:52.058Z,93315.00
2023-03-29T10:03:52.294Z,93316.00
2023-03-29T10:04:52.410Z,93316.00
2023-03-29T10:05:52.624Z,93316.00
2023-03-29T10:06:52.809Z,93316.00
2023-03-29T10:07:52.995Z,93315.00
2023-03-29T10:08:53.972Z,93313.00
2023-03-29T10:09:53.348Z,93320.00
2023-03-29T10:10:53.534Z,93316.00
2023-03-29T10:11:53.681Z,93318.00
2023-03-29T10:12:53.863Z,93309.00
2023-03-29T10:13:54.046Z,93311.00
2023-03-29T10:14:54.328Z,93316.00
2023-03-29T10:15:54.421Z,93320.00
2023-03-29T10:16:54.766Z,93313.00
2023-03-29T10:17:54.829Z,93311.00
2023-03-29T10:18:54.972Z,93313.00
2023-03-29T10:19:55.142Z,93307.00
2023-03-29T10:20:55.283Z,93307.00
2023-03-29T10:21:55.448Z,93311.00
2023-03-29T10:22:55.599Z,93303.00
2023-03-29T10:23:55.792Z,93311.00
2023-03-29T10:24:55.996Z,93318.00
2023-03-29T10:25:56.220Z,93315.00
2023-03-29T10:26:56.409Z,93309.00
2023-03-29T10:27:56.579Z,93311.00
2023-03-29T10:28:56.833Z,93307.00
2023-03-29T10:29:56.945Z,93307.00
2023-03-29T10:30:57.099Z,93303.00
2023-03-29T10:31:57.296Z,93299.00
2023-03-29T10:32:57.466Z,93305.00
2023-03-29T10:33:57.580Z,93293.00
2023-03-29T10:34:57.769Z,93283.00
2023-03-29T10:35:57.965Z,93289.00
2023-03-29T10:36:58.126Z,93287.00
2023-03-29T10:37:58.309Z,93283.00
2023-03-29T10:38:58.467Z,93281.00
2023-03-29T10:39:58.625Z,93281.00
2023-03-29T10:40:58.772Z,93275.00
2023-03-29T10:41:58.941Z,93281.00
2023-03-29T10:42:59.089Z,93279.00
2023-03-29T10:43:59.280Z,93271.00
2023-03-29T10:44:59.534Z,93269.00
2023-03-29T10:45:59.661Z,93273.00
2023-03-29T10:46:59.848Z,93275.00
2023-03-29T10:48:00.120Z,93277.00
2023-03-29T10:49:00.224Z,93277.00
2023-03-29T10:50:00.421Z,93279.00
2023-03-29T10:51:00.750Z,93277.00
2023-03-29T10:52:00.763Z,93279.00
2023-03-29T10:53:00.925Z,93273.00
2023-03-29T10:54:01.106Z,93269.00
2023-03-29T10:55:01.294Z,93271.00
2023-03-29T10:56:01.478Z,93273.00
2023-03-29T10:57:01.693Z,93273.00
2023-03-29T10:58:01.782Z,93275.00
2023-03-29T10:59:01.980Z,93285.00
2023-03-29T11:00:02.280Z,93283.00
2023-03-29T11:01:02.462Z,93279.00
2023-03-29T11:02:02.632Z,93283.00
2023-03-29T11:03:02.796Z,93273.00
2023-03-29T11:04:03.008Z,93269.00
2023-03-29T11:05:03.088Z,93277.00
2023-03-29T11:06:03.323Z,93287.00
2023-03-29T11:07:03.445Z,93287.00
2023-03-29T11:08:03.602Z,93281.00
2023-03-29T11:09:03.759Z,93277.00
2023-03-29T11:10:03.978Z,93281.00
2023-03-29T11:11:04.333Z,93285.00
2023-03-29T11:12:15.074Z,93285.00
2023-03-29T11:13:05.538Z,93271.00
2023-03-29T11:14:04.676Z,93273.00
2023-03-29T11:15:04.835Z,93277.00
2023-03-29T11:16:05.044Z,93277.00
2023-03-29T11:17:05.192Z,93271.00
2023-03-29T11:18:05.290Z,93266.00
2023-03-29T11:19:05.414Z,93262.00
2023-03-29T11:20:05.561Z,93262.00
2023-03-29T11:21:10.210Z,93260.00
2023-03-29T11:22:05.817Z,93271.00
2023-03-29T11:23:05.980Z,93277.00
2023-03-29T11:24:06.128Z,93269.00
2023-03-29T11:25:06.297Z,93269.00
2023-03-29T11:26:06.446Z,93273.00
2023-03-29T11:27:06.613Z,93273.00
2023-03-29T11:28:06.754Z,93275.00
2023-03-29T11:29:06.889Z,93275.00
2023-03-29T11:30:07.030Z,93275.00
2023-03-29T11:31:07.198Z,93281.00
2023-03-29T11:32:07.276Z,93279.00
2023-03-29T11:33:07.416Z,93275.00
2023-03-29T11:34:07.571Z,93279.00
2023-03-29T11:35:07.797Z,93271.00
2023-03-29T11:36:08.001Z,93271.00
2023-03-29T11:37:08.163Z,93279.00
2023-03-29T11:38:08.347Z,93281.00
2023-03-29T11:39:08.530Z,93281.00
2023-03-29T11:40:08.717Z,93285.00
2023-03-29T11:41:08.881Z,93283.00
2023-03-29T11:42:09.057Z,93279.00
2023-03-29T11:43:09.216Z,93281.00
2023-03-29T11:44:09.378Z,93287.00
2023-03-29T11:45:09.548Z,93285.00
2023-03-29T11:46:09.739Z,93285.00
2023-03-29T11:47:09.870Z,93289.00
2023-03-29T11:48:10.025Z,93283.00
2023-03-29T11:49:10.135Z,93281.00